Wilsonville, NE (69046)

7:20 AM CDT on July 22, 2014 (GMT -0500)
McCook Municipal (KMCK) Elev 2579 ft | 40.20 °N, 100.59 °W | Change Station

Current weather conditions updated 27 minutes ago

Clear
Clear
68 °F
Feels Like 68 °F
N
4
Wind Variable Wind from ESE

Today is forecast to be nearly the same temperature as yesterday.

Today
High -- | Low -- °F
--% Chance of Precip.
Yesterday
High -- | Low -- °F
Precip. -- in
6:29 AM 9:03 PM
Waning Crescent, 17% visible
Pressure 30.00 in
Visibility 10.0 miles
Clouds Clear
Dew Point 63 °F
Humidity 84%
Rainfall 0.00 in
Snow Depth Not available.
UV 0 out of 12
Pollen 6.50 out of 12
Air Quality Not available.
Flu Activity Sporadic
METAR KMCK 221153Z AUTO 11003KT 10SM CLR 20/17 A3008 RMK AO2 SLP157 T02000172 10250 20189 50017

More Conditions Fewer Conditions

Pressure 30.00 in
Visibility 10.0 miles
Clouds Clear
Dew Point 63 °F
Humidity 84%
Rainfall 0.00 in
Snow Depth Not available.
UV 0 out of 12
Pollen 6.50 out of 12
Air Quality Not available.
Flu Activity Sporadic
METAR KMCK 221153Z AUTO 11003KT 10SM CLR 20/17 A3008 RMK AO2 SLP157 T02000172 10250 20189 50017

More Conditions Fewer Conditions

10-Day Weather Forecast

LIGHTNING

Thunderstorms are forecast for your area. Cloud conditions might be right for producing strikes in the next few days, though lightning itself cannot be forecasted.

Lightning is a visible electrical discharge produced by a thunderstorm, based on the build up of oppositely charged particles within a cloud and from cloud to ground.

Know how to stay safe in a lightning storm.

Check out these Lightning WunderPhotos!

Almanac

Astronomy

Jul. 22, 2014 Rise Set
Actual Time 6:29 AM CDT 9:03 PM CDT
Civil Twilight 5:58 AM CDT 9:34 PM CDT
Nautical Twilight 5:19 AM CDT 10:13 PM CDT
Astronomical Twilight 4:35 AM CDT 10:57 PM CDT
Moon 3:04 AM CDT 5:43 PM CDT
Length of Visible Light 15h 36m
Length of Day
14h 33m
Tomorrow will be 1m 41s shorter.
Waning Crescent, 17% of the Moon is Illuminated
Today
Waning Crescent
Jul 26
New
Aug 3
First Quarter
Aug 10
Full
Aug 17
Last Quarter

Today's Extremes

State Highs State Lows

Community

WunderPhotos

Upload Photos

1,736,208 photos uploaded!

Nearby

Snow Depth

Station Depth Elevation
No new snow has been reported.

Earthquake Activity

City Distance Mag. Time & Date
No recent earthquake activity has been reported nearby.
Minimum magnitude displayed is 2.5.

Coastal Water Temperatures

Place Temperature
No Stations Reporting

Nearby Weather Stations

Station Location Temp. Dew Point Humidity Wind Precip. Elev Updated Type
HADS RED WILLOW CREEK NEAR INDIANOLA NE, Indianola, NE 69 °F - - North  at  - 0.00 in / hr 2398 ft 6:30 AM CDT MADIS
HADS PRAIRIE DOG CREEK AT COUNTY ROAD KS, Norcatur, KS 64 °F - - North  at  - 0.00 in / hr 2350 ft 5:45 AM CDT MADIS

Show More Stations Show Fewer Stations